createdAt,value
2022-09-22T00:00:07.912Z,0.00
2022-09-22T00:01:08.055Z,0.00
2022-09-22T00:02:07.990Z,0.00
2022-09-22T00:03:07.908Z,0.00
2022-09-22T00:04:07.926Z,0.00
2022-09-22T00:05:07.909Z,0.00
2022-09-22T00:06:07.910Z,0.00
2022-09-22T00:07:07.917Z,0.00
2022-09-22T00:08:07.941Z,0.00
2022-09-22T00:09:07.914Z,0.00
2022-09-22T00:10:07.908Z,0.00
2022-09-22T00:11:07.913Z,0.00
2022-09-22T00:12:07.915Z,0.00
2022-09-22T00:13:07.910Z,0.00
2022-09-22T00:14:08.029Z,0.00
2022-09-22T00:15:07.899Z,0.00
2022-09-22T00:16:07.934Z,0.00
2022-09-22T00:17:07.910Z,0.00
2022-09-22T00:18:07.912Z,0.00
2022-09-22T00:19:07.914Z,0.00
2022-09-22T00:20:07.933Z,0.00
2022-09-22T00:21:07.898Z,0.00
2022-09-22T00:22:07.940Z,0.00
2022-09-22T00:23:07.910Z,0.00
2022-09-22T00:24:08.063Z,0.00
2022-09-22T00:25:07.909Z,0.00
2022-09-22T00:26:07.895Z,0.00
2022-09-22T00:27:07.911Z,0.00
2022-09-22T00:28:07.918Z,0.00
2022-09-22T00:29:08.067Z,0.00
2022-09-22T00:30:07.924Z,0.00
2022-09-22T00:31:08.019Z,0.00
2022-09-22T00:32:08.017Z,0.00
2022-09-22T00:33:07.914Z,0.00
2022-09-22T00:34:07.924Z,0.00
2022-09-22T00:35:07.893Z,0.00
2022-09-22T00:36:07.908Z,0.00
2022-09-22T00:37:07.897Z,0.00
2022-09-22T00:38:07.900Z,0.00
2022-09-22T00:39:07.991Z,0.00
2022-09-22T00:40:07.930Z,0.00
2022-09-22T00:41:07.931Z,0.00
2022-09-22T00:42:07.932Z,0.00
2022-09-22T00:43:07.894Z,0.00
2022-09-22T00:44:07.957Z,0.00
2022-09-22T00:45:07.902Z,0.00
2022-09-22T00:46:07.907Z,0.00
2022-09-22T00:47:07.913Z,0.00
2022-09-22T00:48:07.886Z,0.00
2022-09-22T00:49:07.908Z,0.00
2022-09-22T00:50:07.907Z,0.00
2022-09-22T00:51:07.898Z,0.00
2022-09-22T00:52:07.887Z,0.00
2022-09-22T00:53:07.908Z,0.00
2022-09-22T00:54:07.898Z,0.00
2022-09-22T00:55:07.899Z,0.00
2022-09-22T00:56:07.916Z,0.00
2022-09-22T00:57:07.891Z,0.00
2022-09-22T00:58:07.889Z,0.00
2022-09-22T00:59:07.946Z,0.00
2022-09-22T01:00:07.895Z,0.00
2022-09-22T01:01:07.965Z,0.00
2022-09-22T01:02:07.932Z,0.00
2022-09-22T01:03:07.891Z,0.00
2022-09-22T01:04:07.899Z,0.00
2022-09-22T01:05:07.892Z,0.00
2022-09-22T01:06:07.883Z,0.00
2022-09-22T01:07:07.882Z,0.00
2022-09-22T01:08:07.891Z,0.00
2022-09-22T01:09:07.883Z,0.00
2022-09-22T01:10:07.891Z,0.00
2022-09-22T01:11:07.887Z,0.00
2022-09-22T01:12:07.904Z,0.00
2022-09-22T01:13:07.885Z,0.00
2022-09-22T01:14:07.974Z,0.00
2022-09-22T01:15:07.894Z,0.00
2022-09-22T01:16:07.903Z,0.00
2022-09-22T01:17:07.914Z,0.00
2022-09-22T01:18:07.883Z,0.00
2022-09-22T01:19:07.890Z,0.00
2022-09-22T01:20:07.902Z,0.00
2022-09-22T01:21:07.872Z,0.00
2022-09-22T01:22:07.881Z,0.00
2022-09-22T01:23:07.893Z,0.00
2022-09-22T01:24:07.900Z,0.00
2022-09-22T01:25:07.871Z,0.00
2022-09-22T01:26:07.890Z,0.00
2022-09-22T01:27:07.878Z,0.00
2022-09-22T01:28:07.872Z,0.00
2022-09-22T01:29:07.915Z,0.00
2022-09-22T01:30:07.905Z,0.00
2022-09-22T01:31:07.899Z,0.00
2022-09-22T01:32:07.877Z,0.00
2022-09-22T01:33:07.899Z,0.00
2022-09-22T01:34:07.890Z,0.00
2022-09-22T01:35:07.872Z,0.00
2022-09-22T01:36:07.884Z,0.00
2022-09-22T01:38:51.580Z,0.00
2022-09-22T01:39:39.908Z,0.00
2022-09-22T01:40:39.999Z,0.00
2022-09-22T01:41:39.932Z,0.00
2022-09-22T01:42:39.935Z,0.00
2022-09-22T01:43:39.921Z,0.00
2022-09-22T01:44:39.922Z,0.00
2022-09-22T01:45:39.908Z,0.00
2022-09-22T01:46:39.980Z,0.00
2022-09-22T01:47:39.932Z,0.00
2022-09-22T01:48:39.937Z,0.00
2022-09-22T01:49:39.919Z,0.00
2022-09-22T01:50:39.912Z,0.00
2022-09-22T01:51:39.918Z,0.00
2022-09-22T01:52:39.934Z,0.00
2022-09-22T01:53:39.942Z,0.00
2022-09-22T01:54:39.922Z,0.00
2022-09-22T01:55:39.899Z,0.00
2022-09-22T01:56:39.925Z,0.00
2022-09-22T01:57:39.916Z,0.00
2022-09-22T01:58:39.912Z,0.00
2022-09-22T01:59:39.923Z,0.00
2022-09-22T02:00:39.911Z,0.00
2022-09-22T02:01:40.113Z,0.00
2022-09-22T02:02:40.018Z,0.00
2022-09-22T02:03:39.906Z,0.00
2022-09-22T02:04:39.906Z,0.00
2022-09-22T02:05:39.925Z,0.00
2022-09-22T02:06:39.902Z,0.00
2022-09-22T02:07:39.918Z,0.00
2022-09-22T02:08:39.911Z,0.00
2022-09-22T02:09:39.916Z,0.00
2022-09-22T02:10:39.893Z,0.00
2022-09-22T02:11:39.913Z,0.00
2022-09-22T02:12:39.902Z,0.00
2022-09-22T02:13:39.902Z,0.00
2022-09-22T02:14:39.923Z,0.00
2022-09-22T02:15:39.921Z,0.00
2022-09-22T02:16:39.891Z,0.00
2022-09-22T02:17:39.892Z,0.00
2022-09-22T02:18:39.906Z,0.00
2022-09-22T02:19:39.892Z,0.00
2022-09-22T02:20:39.897Z,0.00
2022-09-22T02:21:39.903Z,0.00
2022-09-22T02:22:39.899Z,0.00
2022-09-22T02:23:39.910Z,0.00
2022-09-22T02:24:39.897Z,0.00
2022-09-22T02:25:39.881Z,0.00
2022-09-22T02:26:39.890Z,0.00
2022-09-22T02:27:39.879Z,0.00
2022-09-22T02:28:39.903Z,0.00
2022-09-22T02:29:39.895Z,0.00
2022-09-22T02:30:39.902Z,0.00
2022-09-22T02:31:39.941Z,0.00
2022-09-22T02:32:39.883Z,0.00
2022-09-22T02:33:39.872Z,0.00
2022-09-22T02:34:39.880Z,0.00
2022-09-22T02:35:39.897Z,0.00
2022-09-22T02:36:39.907Z,0.00
2022-09-22T02:37:39.893Z,0.00
2022-09-22T02:38:39.890Z,0.00
2022-09-22T02:39:39.880Z,0.00
2022-09-22T02:40:39.931Z,0.00
2022-09-22T02:41:39.893Z,0.00
2022-09-22T02:42:39.876Z,0.00
2022-09-22T02:43:39.883Z,0.00
2022-09-22T02:44:39.875Z,0.00
2022-09-22T02:45:39.863Z,0.00
2022-09-22T02:46:39.956Z,0.00
2022-09-22T02:47:39.885Z,0.00
2022-09-22T02:48:39.879Z,0.00
2022-09-22T02:49:39.857Z,0.00
2022-09-22T02:50:39.870Z,0.00
2022-09-22T02:51:39.874Z,0.00
2022-09-22T02:52:39.869Z,0.00
2022-09-22T02:53:39.874Z,0.00
2022-09-22T02:54:39.870Z,0.00
2022-09-22T02:55:39.862Z,0.00
2022-09-22T02:56:39.865Z,0.00
2022-09-22T02:57:39.871Z,0.00
2022-09-22T02:58:39.882Z,0.00
2022-09-22T02:59:39.860Z,0.00
2022-09-22T03:00:39.857Z,0.00
2022-09-22T03:01:39.877Z,0.00
2022-09-22T03:02:39.883Z,0.00
2022-09-22T03:03:39.848Z,0.00
2022-09-22T03:04:39.876Z,0.00
2022-09-22T03:05:39.864Z,0.00
2022-09-22T03:06:39.862Z,0.00
2022-09-22T03:07:39.849Z,0.00
2022-09-22T03:08:39.887Z,0.00
2022-09-22T03:09:39.864Z,0.00
2022-09-22T03:10:39.870Z,0.00
2022-09-22T03:11:39.847Z,0.00
2022-09-22T03:12:47.946Z,0.00
2022-09-22T03:13:39.845Z,0.00
2022-09-22T03:14:39.852Z,0.00
2022-09-22T03:15:39.875Z,0.00
2022-09-22T03:16:39.834Z,0.00
2022-09-22T03:17:39.845Z,0.00
2022-09-22T03:18:39.842Z,0.00
2022-09-22T03:19:39.898Z,0.00
2022-09-22T03:20:39.845Z,0.00
2022-09-22T03:21:39.836Z,0.00
2022-09-22T03:22:39.841Z,0.00
2022-09-22T03:23:39.830Z,0.00
2022-09-22T03:24:39.857Z,0.00
2022-09-22T03:25:39.830Z,0.00
2022-09-22T03:26:39.848Z,0.00
2022-09-22T03:27:39.847Z,0.00
2022-09-22T03:28:39.823Z,0.00
2022-09-22T03:29:39.848Z,0.00
2022-09-22T03:30:39.866Z,0.00
2022-09-22T03:31:39.821Z,0.00
2022-09-22T03:32:39.843Z,0.00
2022-09-22T03:33:39.818Z,0.00
2022-09-22T03:34:39.824Z,0.00
2022-09-22T03:35:39.851Z,0.00
2022-09-22T03:36:39.836Z,0.00
2022-09-22T03:37:39.843Z,0.00
2022-09-22T03:38:39.829Z,0.00
2022-09-22T03:39:39.823Z,0.00
2022-09-22T03:40:39.945Z,0.00
2022-09-22T03:41:39.854Z,0.00
2022-09-22T03:42:39.808Z,0.00
2022-09-22T03:43:39.826Z,0.00
2022-09-22T03:44:39.830Z,0.00
2022-09-22T03:45:39.878Z,0.00
2022-09-22T03:46:39.815Z,0.00
2022-09-22T03:47:39.856Z,0.00
2022-09-22T03:48:44.796Z,0.00
2022-09-22T03:49:39.809Z,0.00
2022-09-22T03:50:39.804Z,0.00
2022-09-22T03:51:39.804Z,0.00
2022-09-22T03:52:39.814Z,0.00
2022-09-22T03:53:39.824Z,0.00
2022-09-22T03:54:39.824Z,0.00
2022-09-22T03:55:39.827Z,0.00
2022-09-22T03:56:39.814Z,0.00
2022-09-22T03:57:39.801Z,0.00
2022-09-22T03:58:39.818Z,0.00
2022-09-22T03:59:39.796Z,0.00
2022-09-22T04:00:39.804Z,0.00
2022-09-22T04:01:39.847Z,0.00
2022-09-22T04:02:39.865Z,0.00
2022-09-22T04:03:39.830Z,0.00
2022-09-22T04:04:39.823Z,0.00
2022-09-22T04:05:39.793Z,0.00
2022-09-22T04:06:39.820Z,0.00
2022-09-22T04:07:39.794Z,0.00
2022-09-22T04:08:39.790Z,0.00
2022-09-22T04:09:39.804Z,0.00
2022-09-22T04:10:39.799Z,0.00
2022-09-22T04:11:39.791Z,0.00
2022-09-22T04:12:39.793Z,0.00
2022-09-22T04:13:45.439Z,0.00
2022-09-22T04:14:39.783Z,0.00
2022-09-22T04:15:39.797Z,0.00
2022-09-22T04:16:39.803Z,0.00
2022-09-22T04:17:39.800Z,0.00
2022-09-22T04:18:39.786Z,0.00
2022-09-22T04:19:39.791Z,0.00
2022-09-22T04:20:42.619Z,0.00
2022-09-22T04:21:39.771Z,0.00
2022-09-22T04:22:39.772Z,0.00
2022-09-22T04:23:39.767Z,0.00
2022-09-22T04:24:39.785Z,0.00
2022-09-22T04:25:39.780Z,0.00
2022-09-22T04:26:47.706Z,0.00
2022-09-22T04:27:39.767Z,0.00
2022-09-22T04:28:39.779Z,0.00
2022-09-22T04:29:39.763Z,0.00
2022-09-22T04:30:39.839Z,0.00
2022-09-22T04:31:39.789Z,0.00
2022-09-22T04:32:47.166Z,0.00
2022-09-22T04:33:39.764Z,0.00
2022-09-22T04:34:39.763Z,0.00
2022-09-22T04:35:39.761Z,0.00
2022-09-22T04:36:39.762Z,0.00
2022-09-22T04:37:39.768Z,0.00
2022-09-22T04:38:39.779Z,0.00
2022-09-22T04:39:39.766Z,0.00
2022-09-22T04:40:39.829Z,0.00
2022-09-22T04:41:39.782Z,0.00
2022-09-22T04:42:39.760Z,0.00
2022-09-22T04:43:39.763Z,0.00
2022-09-22T04:44:39.751Z,0.00
2022-09-22T04:45:40.025Z,0.00
2022-09-22T04:46:39.764Z,0.00
2022-09-22T04:47:39.743Z,0.00
2022-09-22T04:48:39.794Z,0.00
2022-09-22T04:49:39.742Z,0.00
2022-09-22T04:50:41.492Z,0.00
2022-09-22T04:51:39.746Z,0.00
2022-09-22T04:52:39.755Z,0.00
2022-09-22T04:53:39.742Z,0.00
2022-09-22T04:54:39.759Z,0.00
2022-09-22T04:55:39.751Z,0.00
2022-09-22T04:56:39.736Z,0.00
2022-09-22T04:57:39.749Z,0.00
2022-09-22T04:58:39.740Z,0.00
2022-09-22T04:59:39.757Z,0.00
2022-09-22T05:00:39.748Z,0.00
2022-09-22T05:01:39.861Z,0.00
2022-09-22T05:02:39.730Z,0.00
2022-09-22T05:03:39.813Z,0.00
2022-09-22T05:04:39.737Z,0.00
2022-09-22T05:05:39.754Z,0.00
2022-09-22T05:06:39.730Z,0.00
2022-09-22T05:07:39.743Z,0.00
2022-09-22T05:08:39.752Z,0.00
2022-09-22T05:09:39.730Z,0.00
2022-09-22T05:10:39.741Z,0.00
2022-09-22T05:11:39.748Z,0.00
2022-09-22T05:12:39.738Z,0.00
2022-09-22T05:13:39.736Z,5.63
2022-09-22T05:14:39.743Z,5.63
2022-09-22T05:15:39.717Z,5.63
2022-09-22T05:16:39.764Z,5.63
2022-09-22T05:17:39.712Z,5.63
2022-09-22T05:18:39.721Z,5.63
2022-09-22T05:19:39.729Z,5.63
2022-09-22T05:20:39.712Z,5.63
2022-09-22T05:21:39.707Z,5.63
2022-09-22T05:22:40.124Z,5.63
2022-09-22T05:23:39.760Z,5.63
2022-09-22T05:24:39.720Z,5.63
2022-09-22T05:25:39.744Z,5.63
2022-09-22T05:26:39.714Z,5.63
2022-09-22T05:27:39.735Z,5.63
2022-09-22T05:28:39.726Z,5.63
2022-09-22T05:29:39.729Z,5.63
2022-09-22T05:30:39.715Z,5.63
2022-09-22T05:31:39.788Z,11.25
2022-09-22T05:32:39.696Z,11.25
2022-09-22T05:33:39.701Z,11.25
2022-09-22T05:34:39.723Z,11.25
2022-09-22T05:35:39.705Z,11.25
2022-09-22T05:36:39.706Z,11.25
2022-09-22T05:37:39.699Z,11.25
2022-09-22T05:38:39.702Z,11.25
2022-09-22T05:39:39.696Z,11.25
2022-09-22T05:40:39.737Z,11.25
2022-09-22T05:41:39.708Z,11.25
2022-09-22T05:42:39.701Z,11.25
2022-09-22T05:43:39.709Z,11.25
2022-09-22T05:44:39.707Z,16.88
2022-09-22T05:45:39.756Z,16.88
2022-09-22T05:46:39.687Z,22.50
2022-09-22T05:47:39.689Z,22.50
2022-09-22T05:48:39.702Z,22.50
2022-09-22T05:49:39.711Z,28.13
2022-09-22T05:50:39.704Z,28.13
2022-09-22T05:51:39.696Z,33.75
2022-09-22T05:52:39.716Z,33.75
2022-09-22T05:53:39.696Z,33.75
2022-09-22T05:54:39.671Z,39.38
2022-09-22T05:55:39.675Z,39.38
2022-09-22T05:56:39.722Z,45.00
2022-09-22T05:57:39.669Z,45.00
2022-09-22T05:58:39.702Z,50.63
2022-09-22T05:59:39.677Z,50.63
2022-09-22T06:00:39.719Z,56.25
2022-09-22T06:01:39.667Z,61.88
2022-09-22T06:02:39.700Z,67.50
2022-09-22T06:03:39.663Z,73.13
2022-09-22T06:04:39.691Z,78.75
2022-09-22T06:05:39.839Z,84.38
2022-09-22T06:06:39.672Z,90.00
2022-09-22T06:07:39.661Z,95.63
2022-09-22T06:08:39.665Z,106.88
2022-09-22T06:09:39.672Z,112.50
2022-09-22T06:10:39.671Z,118.13
2022-09-22T06:11:39.656Z,129.38
2022-09-22T06:12:39.651Z,135.00
2022-09-22T06:13:39.661Z,146.25
2022-09-22T06:14:39.651Z,157.50
2022-09-22T06:15:39.689Z,168.75
2022-09-22T06:16:39.694Z,174.38
2022-09-22T06:17:39.659Z,180.00
2022-09-22T06:18:39.671Z,191.25
2022-09-22T06:19:39.669Z,202.50
2022-09-22T06:20:39.658Z,213.75
2022-09-22T06:21:39.661Z,230.63
2022-09-22T06:22:39.656Z,236.25
2022-09-22T06:23:42.855Z,241.88
2022-09-22T06:24:39.639Z,247.50
2022-09-22T06:25:39.653Z,253.13
2022-09-22T06:26:39.656Z,258.75
2022-09-22T06:27:39.679Z,270.00
2022-09-22T06:28:39.650Z,275.63
2022-09-22T06:29:39.637Z,281.25
2022-09-22T06:30:39.650Z,292.50
2022-09-22T06:31:39.685Z,298.13
2022-09-22T06:32:39.658Z,303.75
2022-09-22T06:33:39.681Z,303.75
2022-09-22T06:34:39.727Z,298.13
2022-09-22T06:35:39.658Z,303.75
2022-09-22T06:36:39.649Z,298.13
2022-09-22T06:37:39.662Z,292.50
2022-09-22T06:38:39.687Z,286.88
2022-09-22T06:39:39.649Z,270.00
2022-09-22T06:40:39.673Z,258.75
2022-09-22T06:41:39.652Z,253.13
2022-09-22T06:42:39.651Z,241.88
2022-09-22T06:43:39.670Z,219.38
2022-09-22T06:44:39.825Z,208.13
2022-09-22T06:45:39.734Z,185.63
2022-09-22T06:46:39.657Z,157.50
2022-09-22T06:47:39.660Z,123.75
2022-09-22T06:48:39.647Z,101.25
2022-09-22T06:49:39.656Z,84.38
2022-09-22T06:50:39.647Z,67.50
2022-09-22T06:51:39.665Z,56.25
2022-09-22T06:52:39.656Z,50.63
2022-09-22T06:53:39.667Z,50.63
2022-09-22T06:54:39.679Z,50.63
2022-09-22T06:55:39.665Z,50.63
2022-09-22T06:56:39.658Z,50.63
2022-09-22T06:57:39.648Z,50.63
2022-09-22T06:59:05.506Z,56.25
2022-09-22T06:59:39.650Z,61.88
2022-09-22T07:00:39.735Z,67.50
2022-09-22T07:01:39.748Z,84.38
2022-09-22T07:02:39.649Z,101.25
2022-09-22T07:03:39.661Z,135.00
2022-09-22T07:04:39.661Z,168.75
2022-09-22T07:05:39.676Z,202.50
2022-09-22T07:06:39.658Z,213.75
2022-09-22T07:07:39.671Z,236.25
2022-09-22T07:08:39.648Z,275.63
2022-09-22T07:09:39.665Z,320.63
2022-09-22T07:10:39.712Z,348.75
2022-09-22T07:11:40.481Z,360.00
2022-09-22T07:12:39.659Z,371.25
2022-09-22T07:13:39.659Z,388.13
2022-09-22T07:14:39.668Z,393.75
2022-09-22T07:15:39.678Z,399.38
2022-09-22T07:16:39.703Z,399.38
2022-09-22T07:17:39.666Z,405.00
2022-09-22T07:18:39.665Z,410.63
2022-09-22T07:19:39.675Z,410.63
2022-09-22T07:20:39.683Z,416.25
2022-09-22T07:21:39.685Z,416.25
2022-09-22T07:22:39.697Z,421.88
2022-09-22T07:23:39.677Z,427.50
2022-09-22T07:24:39.687Z,427.50
2022-09-22T07:25:39.683Z,433.13
2022-09-22T07:26:39.711Z,438.75
2022-09-22T07:27:39.680Z,444.38
2022-09-22T07:28:39.687Z,444.38
2022-09-22T07:29:39.676Z,450.00
2022-09-22T07:30:39.684Z,455.63
2022-09-22T07:31:39.741Z,455.63
2022-09-22T07:32:39.718Z,466.88
2022-09-22T07:33:39.696Z,461.25
2022-09-22T07:34:39.701Z,461.25
2022-09-22T07:35:39.707Z,461.25
2022-09-22T07:36:39.706Z,466.88
2022-09-22T07:37:39.721Z,466.88
2022-09-22T07:38:39.817Z,472.50
2022-09-22T07:39:39.713Z,478.13
2022-09-22T07:40:39.788Z,472.50
2022-09-22T07:41:39.706Z,478.13
2022-09-22T07:42:39.741Z,483.75
2022-09-22T07:43:39.738Z,478.13
2022-09-22T07:44:43.713Z,483.75
2022-09-22T07:45:39.732Z,483.75
2022-09-22T07:46:39.856Z,483.75
2022-09-22T07:47:39.748Z,495.00
2022-09-22T07:48:39.750Z,495.00
2022-09-22T07:49:39.767Z,495.00
2022-09-22T07:50:39.750Z,495.00
2022-09-22T07:51:39.743Z,500.63
2022-09-22T07:52:39.757Z,500.63
2022-09-22T07:53:39.758Z,506.25
2022-09-22T07:54:39.793Z,506.25
2022-09-22T07:55:39.798Z,511.88
2022-09-22T07:56:39.764Z,517.50
2022-09-22T07:57:39.797Z,511.88
2022-09-22T07:58:39.792Z,517.50
2022-09-22T07:59:39.803Z,523.13
2022-09-22T08:00:39.846Z,523.13
2022-09-22T08:01:39.868Z,528.75
2022-09-22T08:02:39.814Z,517.50
2022-09-22T08:03:39.804Z,511.88
2022-09-22T08:04:39.842Z,511.88
2022-09-22T08:05:39.814Z,506.25
2022-09-22T08:06:39.880Z,500.63
2022-09-22T08:07:39.818Z,495.00
2022-09-22T08:08:39.831Z,489.38
2022-09-22T08:09:39.822Z,489.38
2022-09-22T08:10:39.830Z,489.38
2022-09-22T08:11:39.852Z,489.38
2022-09-22T08:12:39.846Z,489.38
2022-09-22T08:13:39.852Z,489.38
2022-09-22T08:14:39.843Z,495.00
2022-09-22T08:15:39.854Z,489.38
2022-09-22T08:16:39.875Z,495.00
2022-09-22T08:17:39.880Z,495.00
2022-09-22T08:18:39.884Z,489.38
2022-09-22T08:19:40.705Z,495.00
2022-09-22T08:20:44.695Z,500.63
2022-09-22T08:21:47.964Z,483.75
2022-09-22T08:22:39.904Z,489.38
2022-09-22T08:23:39.893Z,495.00
2022-09-22T08:24:39.900Z,483.75
2022-09-22T08:25:39.907Z,472.50
2022-09-22T08:26:41.246Z,461.25
2022-09-22T08:27:39.931Z,455.63
2022-09-22T08:28:39.948Z,450.00
2022-09-22T08:29:39.955Z,444.38
2022-09-22T08:30:39.929Z,427.50
2022-09-22T08:31:39.973Z,416.25
2022-09-22T08:32:39.941Z,410.63
2022-09-22T08:33:39.940Z,393.75
2022-09-22T08:34:39.959Z,393.75
2022-09-22T08:35:39.976Z,50.63
2022-09-22T08:36:39.957Z,45.00
2022-09-22T08:37:39.973Z,45.00
2022-09-22T08:38:39.966Z,45.00
2022-09-22T08:39:39.986Z,61.88
2022-09-22T08:40:40.033Z,73.13
2022-09-22T08:41:39.987Z,208.13
2022-09-22T08:42:39.991Z,281.25
2022-09-22T08:43:40.008Z,281.25
2022-09-22T08:44:40.026Z,185.63
2022-09-22T08:45:40.013Z,106.88
2022-09-22T08:46:40.096Z,286.88
2022-09-22T08:47:40.026Z,315.00
2022-09-22T08:48:40.037Z,337.50
2022-09-22T08:49:40.050Z,112.50
2022-09-22T08:50:40.046Z,298.13
2022-09-22T08:51:40.035Z,101.25
2022-09-22T08:52:40.042Z,371.25
2022-09-22T08:53:40.055Z,348.75
2022-09-22T08:54:40.066Z,337.50
2022-09-22T08:55:40.065Z,348.75
2022-09-22T08:56:40.064Z,354.38
2022-09-22T08:57:40.078Z,371.25
2022-09-22T08:58:40.087Z,405.00
2022-09-22T08:59:40.098Z,444.38
2022-09-22T09:00:42.739Z,500.63
2022-09-22T09:01:40.157Z,551.25
2022-09-22T09:02:40.213Z,596.25
2022-09-22T09:03:40.114Z,635.63
2022-09-22T09:04:40.117Z,669.38
2022-09-22T09:05:40.115Z,714.38
2022-09-22T09:06:40.152Z,703.13
2022-09-22T09:07:40.134Z,725.63
2022-09-22T09:08:40.139Z,742.50
2022-09-22T09:09:40.138Z,759.38
2022-09-22T09:10:40.143Z,781.88
2022-09-22T09:11:40.180Z,810.00
2022-09-22T09:12:40.170Z,843.75
2022-09-22T09:13:40.170Z,866.25
2022-09-22T09:14:40.182Z,798.75
2022-09-22T09:15:40.229Z,686.25
2022-09-22T09:16:40.190Z,596.25
2022-09-22T09:17:40.218Z,573.75
2022-09-22T09:18:40.200Z,556.88
2022-09-22T09:19:40.208Z,556.88
2022-09-22T09:20:40.208Z,573.75
2022-09-22T09:21:40.218Z,466.88
2022-09-22T09:22:43.667Z,562.50
2022-09-22T09:25:40.238Z,663.75
2022-09-22T09:26:40.256Z,916.88
2022-09-22T09:27:40.286Z,1271.25
2022-09-22T09:28:40.271Z,1372.50
2022-09-22T09:29:40.287Z,1456.88
2022-09-22T09:30:40.308Z,1513.13
2022-09-22T09:31:40.289Z,129.38
2022-09-22T09:32:40.302Z,146.25
2022-09-22T09:33:40.303Z,1091.25
2022-09-22T09:34:40.311Z,1243.13
2022-09-22T09:35:42.130Z,725.63
2022-09-22T09:36:40.328Z,1597.50
2022-09-22T09:37:40.353Z,1631.25
2022-09-22T09:38:40.354Z,1608.75
2022-09-22T09:39:40.468Z,1513.13
2022-09-22T09:40:40.421Z,1153.13
2022-09-22T09:41:40.396Z,849.38
2022-09-22T09:42:40.385Z,776.25
2022-09-22T09:43:40.399Z,883.13
2022-09-22T09:44:40.414Z,866.25
2022-09-22T09:45:40.418Z,860.63
2022-09-22T09:46:40.458Z,78.75
2022-09-22T09:47:40.438Z,95.63
2022-09-22T09:48:40.439Z,106.88
2022-09-22T09:49:40.456Z,247.50
2022-09-22T09:50:40.485Z,804.38
2022-09-22T09:51:40.585Z,686.25
2022-09-22T09:52:40.494Z,540.00
2022-09-22T09:53:41.635Z,815.63
2022-09-22T09:54:40.520Z,787.50
2022-09-22T09:55:40.601Z,106.88
2022-09-22T09:56:40.525Z,146.25
2022-09-22T09:57:40.526Z,118.13
2022-09-22T09:58:40.576Z,135.00
2022-09-22T09:59:40.544Z,838.13
2022-09-22T10:00:40.570Z,933.75
2022-09-22T10:01:40.613Z,933.75
2022-09-22T10:02:40.556Z,939.38
2022-09-22T10:03:40.629Z,961.88
2022-09-22T10:04:40.585Z,945.00
2022-09-22T10:05:40.583Z,1018.13
2022-09-22T10:06:40.598Z,1023.75
2022-09-22T10:07:40.637Z,1051.88
2022-09-22T10:08:40.624Z,1063.13
2022-09-22T10:09:40.639Z,1108.13
2022-09-22T10:10:40.635Z,1181.25
2022-09-22T10:11:40.653Z,1254.38
2022-09-22T10:12:40.677Z,1479.38
2022-09-22T10:13:40.661Z,1901.25
2022-09-22T10:14:40.685Z,2081.25
2022-09-22T10:15:40.742Z,2171.25
2022-09-22T10:16:40.758Z,2188.13
2022-09-22T10:17:40.717Z,2182.50
2022-09-22T10:18:40.883Z,2188.13
2022-09-22T10:19:40.733Z,2227.50
2022-09-22T10:20:40.752Z,2238.75
2022-09-22T10:21:40.783Z,2216.25
2022-09-22T10:22:40.795Z,90.00
2022-09-22T10:23:40.771Z,67.50
2022-09-22T10:24:40.803Z,73.13
2022-09-22T10:25:40.815Z,118.13
2022-09-22T10:26:40.808Z,2295.00
2022-09-22T10:27:40.835Z,2311.88
2022-09-22T10:28:40.835Z,2311.88
2022-09-22T10:29:40.841Z,2266.88
2022-09-22T10:30:40.895Z,2272.50
2022-09-22T10:31:40.874Z,2233.13
2022-09-22T10:32:40.946Z,2250.00
2022-09-22T10:33:43.839Z,2250.00
2022-09-22T10:34:40.961Z,2278.13
2022-09-22T10:35:40.925Z,2362.50
2022-09-22T10:36:40.941Z,2356.88
2022-09-22T10:37:41.000Z,2306.25
2022-09-22T10:38:41.001Z,2244.38
2022-09-22T10:39:40.992Z,2193.75
2022-09-22T10:40:41.015Z,2165.63
2022-09-22T10:41:41.004Z,2143.13
2022-09-22T10:42:41.035Z,2160.00
2022-09-22T10:43:41.052Z,2199.38
2022-09-22T10:44:45.195Z,2266.88
2022-09-22T10:45:41.089Z,61.88
2022-09-22T10:46:41.104Z,73.13
2022-09-22T10:47:41.085Z,106.88
2022-09-22T10:48:41.148Z,2373.75
2022-09-22T10:49:41.099Z,2430.00
2022-09-22T10:50:41.133Z,2503.13
2022-09-22T10:51:41.116Z,2424.38
2022-09-22T10:52:41.184Z,2480.63
2022-09-22T10:53:41.159Z,2345.63
2022-09-22T10:54:41.168Z,2300.63
2022-09-22T10:55:41.190Z,2289.38
2022-09-22T10:56:41.210Z,2233.13
2022-09-22T10:57:41.213Z,2250.00
2022-09-22T10:58:41.221Z,2306.25
2022-09-22T10:59:41.246Z,2328.75
2022-09-22T11:00:41.242Z,2244.38
2022-09-22T11:01:41.283Z,2295.00
2022-09-22T11:02:41.283Z,2295.00
2022-09-22T11:03:41.290Z,2379.38
2022-09-22T11:04:41.364Z,1181.25
2022-09-22T11:05:41.311Z,309.38
2022-09-22T11:06:41.311Z,2317.50
2022-09-22T11:07:41.348Z,2199.38
2022-09-22T11:08:41.366Z,1743.75
2022-09-22T11:10:41.376Z,90.00
2022-09-22T11:11:41.383Z,118.13
2022-09-22T11:12:41.403Z,1940.63
2022-09-22T11:13:41.426Z,2025.00
2022-09-22T11:14:41.436Z,1350.00
2022-09-22T11:15:41.542Z,731.25
2022-09-22T11:16:41.458Z,568.13
2022-09-22T11:17:45.297Z,495.00
2022-09-22T11:18:41.480Z,444.38
2022-09-22T11:19:41.499Z,427.50
2022-09-22T11:20:41.494Z,405.00
2022-09-22T11:21:41.517Z,388.13
2022-09-22T11:22:41.526Z,365.63
2022-09-22T11:23:41.522Z,360.00
2022-09-22T11:24:41.575Z,360.00
2022-09-22T11:25:41.590Z,376.88
2022-09-22T11:26:41.558Z,382.50
2022-09-22T11:27:41.601Z,151.88
2022-09-22T11:28:41.577Z,106.88
2022-09-22T11:29:41.587Z,78.75
2022-09-22T11:30:41.680Z,95.63
2022-09-22T11:31:41.645Z,258.75
2022-09-22T11:32:41.618Z,84.38
2022-09-22T11:33:41.625Z,73.13
2022-09-22T11:34:41.646Z,67.50
2022-09-22T11:35:41.654Z,67.50
2022-09-22T11:36:41.677Z,67.50
2022-09-22T11:37:41.663Z,67.50
2022-09-22T11:38:41.699Z,67.50
2022-09-22T11:39:41.683Z,67.50
2022-09-22T11:40:41.766Z,61.88
2022-09-22T11:41:41.752Z,67.50
2022-09-22T11:42:41.717Z,73.13
2022-09-22T11:43:41.736Z,61.88
2022-09-22T11:44:41.730Z,50.63
2022-09-22T11:45:41.776Z,50.63
2022-09-22T11:46:41.779Z,50.63
2022-09-22T11:47:41.744Z,50.63
2022-09-22T11:48:41.751Z,50.63
2022-09-22T11:49:41.757Z,50.63
2022-09-22T11:50:41.763Z,56.25
2022-09-22T11:51:41.811Z,61.88
2022-09-22T11:52:41.818Z,67.50
2022-09-22T11:53:41.795Z,73.13
2022-09-22T11:54:41.802Z,73.13
2022-09-22T11:55:41.799Z,67.50
2022-09-22T11:56:41.804Z,67.50
2022-09-22T11:57:41.836Z,67.50
2022-09-22T11:58:41.841Z,67.50
2022-09-22T11:59:41.834Z,73.13
2022-09-22T12:00:41.829Z,78.75
2022-09-22T12:01:41.855Z,73.13
2022-09-22T12:02:41.942Z,67.50
2022-09-22T12:03:42.049Z,61.88
2022-09-22T12:04:41.863Z,56.25
2022-09-22T12:05:41.906Z,56.25
2022-09-22T12:06:41.894Z,61.88
2022-09-22T12:07:41.893Z,61.88
2022-09-22T12:08:41.890Z,61.88
2022-09-22T12:09:41.899Z,56.25
2022-09-22T12:10:41.912Z,56.25
2022-09-22T12:11:41.912Z,61.88
2022-09-22T12:12:41.921Z,112.50
2022-09-22T12:13:41.929Z,123.75
2022-09-22T12:14:41.933Z,118.13
2022-09-22T12:15:42.023Z,118.13
2022-09-22T12:16:42.152Z,118.13
2022-09-22T12:17:41.914Z,112.50
2022-09-22T12:18:41.926Z,112.50
2022-09-22T12:19:42.029Z,112.50
2022-09-22T12:20:41.948Z,112.50
2022-09-22T12:21:42.366Z,112.50
2022-09-22T12:22:41.964Z,112.50
2022-09-22T12:23:42.791Z,118.13
2022-09-22T12:24:41.966Z,118.13
2022-09-22T12:25:48.809Z,118.13
2022-09-22T12:26:41.981Z,118.13
2022-09-22T12:27:41.965Z,118.13
2022-09-22T12:28:41.994Z,106.88
2022-09-22T12:29:41.968Z,106.88
2022-09-22T12:30:41.981Z,101.25
2022-09-22T12:31:42.042Z,101.25
2022-09-22T12:32:41.997Z,84.38
2022-09-22T12:33:42.001Z,56.25
2022-09-22T12:34:42.005Z,73.13
2022-09-22T12:35:42.055Z,84.38
2022-09-22T12:36:42.033Z,101.25
2022-09-22T12:37:42.040Z,101.25
2022-09-22T12:38:42.000Z,78.75
2022-09-22T12:39:42.017Z,61.88
2022-09-22T12:40:42.149Z,61.88
2022-09-22T12:41:42.015Z,95.63
2022-09-22T12:42:42.046Z,95.63
2022-09-22T12:43:42.029Z,84.38
2022-09-22T12:44:42.035Z,90.00
2022-09-22T12:45:42.065Z,123.75
2022-09-22T12:46:42.055Z,129.38
2022-09-22T12:47:42.073Z,129.38
2022-09-22T12:48:42.056Z,123.75
2022-09-22T12:49:42.073Z,112.50
2022-09-22T12:50:42.075Z,101.25
2022-09-22T12:51:42.103Z,95.63
2022-09-22T12:52:42.092Z,95.63
2022-09-22T12:53:43.792Z,90.00
2022-09-22T12:54:42.079Z,84.38